Belle Plaine, Minnesota
Current Conditions -  °F | °C
As of 8:14 AM on Thursday 29 Jan 2015 (Local Time) from KGYL Reporting Station
Overcast Overcast  
Wind Chill: 18°   Ceiling: 2000
Heat Index: 30°   Visibility: 10mi
Dew Point: 26°   Wind: 18mph
Humidity: 83%   Direction: 320°NW
Pressure: 30.17"   Gusts: 26mph
Location:  44.62°N, 93.77°W
Report Text: KGYL 291414Z AUTO 32016G23KT 10SM OVC020 M01/M03 A3017 RMK AO2 T10101035
Loading
Personal Weather Stations






























Interactive Weather Map New forecast layout! Learn more

10-Day Weather Forecast

Advertisements
Track Severe Weather on mobile